Time;durP1;ratioP1;P1;durP2;ratioP2;P2;SDS_P1;SDS_P2;PMS_P1;PMS_P2;Temp;Humidity;BMP_temperature;BMP_pressure;BME280_temperature;BME280_humidity;BME280_pressure;Samples;Min_cycle;Max_cycle;Signal;HPM_P1;HPM_P2
2023/02/23 00:02:30;;;;;;;14.45;7.30;;;;;;;;;;5055099;28;20059;-73
2023/02/23 00:05:16;;;;;;;15.85;7.70;;;;;;;;;;5054885;28;20021;-73
2023/02/23 00:08:01;;;;;;;11.32;6.80;;;;;;;;;;5057004;28;20330;-74
2023/02/23 00:10:47;;;;;;;12.07;6.93;;;;;;;;;;5055683;28;20025;-74
2023/02/23 00:13:36;;;;;;;19.27;6.90;;;;;;;;;;5056113;28;20094;-74
2023/02/23 00:16:22;;;;;;;12.95;6.85;;;;;;;;;;5055906;28;20056;-72
2023/02/23 00:19:08;;;;;;;11.68;6.50;;;;;;;;;;5059958;28;20017;-73
2023/02/23 00:21:57;;;;;;;11.80;6.50;;;;;;;;;;5066036;28;20029;-74
2023/02/23 00:24:45;;;;;;;11.55;6.38;;;;;;;;;;5057583;28;20017;-74
2023/02/23 00:27:31;;;;;;;12.80;6.38;;;;;;;;;;5055252;28;20059;-73
2023/02/23 00:30:18;;;;;;;11.27;6.03;;;;;;;;;;5055236;28;20095;-73
2023/02/23 00:33:03;;;;;;;11.07;6.30;;;;;;;;;;5055150;28;20477;-74
2023/02/23 00:35:49;;;;;;;13.98;6.75;;;;;;;;;;5054837;28;20052;-75
2023/02/23 00:38:35;;;;;;;15.05;6.53;;;;;;;;;;5054311;28;20029;-74
2023/02/23 00:41:27;;;;;;;10.20;6.15;;;;;;;;;;5054303;28;20025;-74
2023/02/23 00:44:15;;;;;;;11.05;6.35;;;;;;;;;;5054209;28;20014;-73
2023/02/23 00:47:01;;;;;;;12.98;6.85;;;;;;;;;;5054975;28;20021;-73
2023/02/23 00:49:48;;;;;;;12.32;7.05;;;;;;;;;;5054772;28;20060;-73
2023/02/23 00:52:33;;;;;;;12.50;7.00;;;;;;;;;;5054533;28;20563;-75
2023/02/23 00:55:19;;;;;;;13.43;6.70;;;;;;;;;;5054819;28;20040;-74
2023/02/23 00:58:08;;;;;;;12.30;6.55;;;;;;;;;;5054727;28;20472;-73
2023/02/23 01:00:54;;;;;;;12.30;6.15;;;;;;;;;;5054651;28;20029;-73
2023/02/23 01:03:40;;;;;;;16.38;6.88;;;;;;;;;;5053937;28;20025;-73
2023/02/23 01:06:26;;;;;;;14.65;6.65;;;;;;;;;;5054519;28;20098;-74
2023/02/23 01:09:13;;;;;;;15.48;7.20;;;;;;;;;;5054312;28;20457;-74
2023/02/23 01:12:00;;;;;;;15.05;6.63;;;;;;;;;;5054689;28;20025;-73
2023/02/23 01:14:46;;;;;;;10.65;6.20;;;;;;;;;;5054552;28;20031;-74
2023/02/23 01:17:32;;;;;;;12.95;6.53;;;;;;;;;;5054326;28;20067;-73
2023/02/23 01:20:18;;;;;;;14.02;6.13;;;;;;;;;;5052353;28;20014;-74
2023/02/23 01:23:04;;;;;;;14.40;6.00;;;;;;;;;;5054585;28;20029;-74
2023/02/23 01:25:49;;;;;;;11.75;5.82;;;;;;;;;;5039767;28;20458;-74
2023/02/23 01:28:35;;;;;;;9.75;5.97;;;;;;;;;;5058142;28;20452;-74
2023/02/23 01:31:21;;;;;;;11.15;5.75;;;;;;;;;;5057450;28;20108;-73
2023/02/23 01:34:09;;;;;;;8.50;5.25;;;;;;;;;;5058256;28;20044;-74
2023/02/23 01:36:54;;;;;;;9.43;5.97;;;;;;;;;;5057874;28;20116;-74
2023/02/23 01:39:40;;;;;;;11.00;5.45;;;;;;;;;;5057522;28;20400;-73
2023/02/23 01:42:25;;;;;;;11.20;5.72;;;;;;;;;;5056944;28;20035;-73
2023/02/23 01:45:20;;;;;;;11.55;5.25;;;;;;;;;;5057392;28;20422;-73
2023/02/23 01:48:11;;;;;;;13.63;5.97;;;;;;;;;;5056905;28;20013;-73
2023/02/23 01:50:59;;;;;;;11.35;5.22;;;;;;;;;;5057706;28;20094;-73
2023/02/23 01:53:54;;;;;;;13.63;6.40;;;;;;;;;;5056285;28;20116;-74
2023/02/23 01:56:43;;;;;;;12.40;5.93;;;;;;;;;;5057877;28;20112;-73
2023/02/23 01:59:36;;;;;;;12.73;5.78;;;;;;;;;;5057195;28;20027;-73
2023/02/23 02:02:31;;;;;;;9.15;5.57;;;;;;;;;;5056717;28;20497;-73
2023/02/23 02:05:17;;;;;;;11.07;5.65;;;;;;;;;;5043455;28;20407;-73
2023/02/23 02:08:05;;;;;;;9.38;5.30;;;;;;;;;;5057150;28;20025;-74
2023/02/23 02:10:54;;;;;;;13.52;5.70;;;;;;;;;;5057940;28;20063;-73
2023/02/23 02:13:40;;;;;;;9.85;5.85;;;;;;;;;;5056563;28;20025;-73
2023/02/23 02:16:48;;;;;;;10.40;5.50;;;;;;;;;;5057012;28;20039;-75
2023/02/23 02:19:40;;;;;;;13.35;5.88;;;;;;;;;;5036429;28;20350;-74
2023/02/23 02:22:45;;;;;;;14.90;5.53;;;;;;;;;;5056657;28;20013;-74
2023/02/23 02:25:42;;;;;;;9.77;5.07;;;;;;;;;;5057319;28;20021;-74
2023/02/23 02:28:37;;;;;;;9.55;4.68;;;;;;;;;;5057128;28;20017;-73
2023/02/23 02:31:25;;;;;;;10.15;5.20;;;;;;;;;;5056834;28;20021;-74
2023/02/23 02:34:35;;;;;;;9.38;5.18;;;;;;;;;;5056016;28;20405;-74
2023/02/23 02:37:27;;;;;;;11.25;5.00;;;;;;;;;;5056341;28;20033;-74
2023/02/23 02:40:31;;;;;;;8.20;5.20;;;;;;;;;;5055707;28;20021;-74
2023/02/23 02:43:29;;;;;;;9.57;5.20;;;;;;;;;;5056743;28;20021;-73
2023/02/23 02:46:26;;;;;;;11.63;5.53;;;;;;;;;;5056194;28;20028;-73
2023/02/23 02:49:33;;;;;;;11.32;5.10;;;;;;;;;;5056076;28;20025;-75
2023/02/23 02:52:27;;;;;;;12.27;6.00;;;;;;;;;;5056179;28;20461;-74
2023/02/23 02:55:16;;;;;;;10.05;5.50;;;;;;;;;;5056717;28;20213;-74
2023/02/23 02:58:03;;;;;;;10.82;5.68;;;;;;;;;;5056472;28;20021;-75
2023/02/23 04:19:19;;;;;;;11.45;6.68;;;;;;;;;;5055536;28;20124;-73
2023/02/23 04:22:04;;;;;;;13.88;6.28;;;;;;;;;;5054209;28;20017;-73
2023/02/23 04:24:50;;;;;;;11.63;6.72;;;;;;;;;;5054072;28;20464;-74
2023/02/23 04:27:36;;;;;;;15.18;6.90;;;;;;;;;;5054335;28;20036;-73
2023/02/23 04:30:24;;;;;;;15.63;6.95;;;;;;;;;;5054758;28;20017;-73
2023/02/23 04:33:10;;;;;;;12.80;6.30;;;;;;;;;;5054490;28;20473;-74
2023/02/23 04:35:55;;;;;;;11.43;6.57;;;;;;;;;;5054613;28;20037;-73
2023/02/23 04:38:41;;;;;;;16.38;6.35;;;;;;;;;;5054576;28;20361;-73
2023/02/23 04:41:26;;;;;;;12.70;6.72;;;;;;;;;;5054205;28;20449;-72
2023/02/23 04:44:12;;;;;;;17.77;7.68;;;;;;;;;;5055084;28;20035;-73
2023/02/23 04:46:58;;;;;;;19.65;7.72;;;;;;;;;;5053943;28;20437;-74
2023/02/23 04:49:43;;;;;;;12.32;8.15;;;;;;;;;;5040296;28;20081;-74
2023/02/23 04:52:30;;;;;;;14.23;8.13;;;;;;;;;;5054104;28;20021;-73
2023/02/23 04:55:17;;;;;;;24.35;8.82;;;;;;;;;;5053998;28;20032;-74
2023/02/23 04:58:02;;;;;;;12.82;8.45;;;;;;;;;;5053811;28;20031;-73
2023/02/23 05:00:48;;;;;;;17.92;9.27;;;;;;;;;;5054945;28;20029;-74
2023/02/23 05:03:34;;;;;;;16.27;8.70;;;;;;;;;;5058173;28;20017;-74
2023/02/23 05:06:20;;;;;;;14.63;8.02;;;;;;;;;;5061041;28;20017;-72
2023/02/23 05:09:06;;;;;;;13.93;7.63;;;;;;;;;;5062947;28;20052;-72
2023/02/23 05:11:51;;;;;;;14.65;7.75;;;;;;;;;;5059351;28;20036;-72
2023/02/23 05:14:37;;;;;;;18.52;7.13;;;;;;;;;;5061483;28;20521;-73
2023/02/23 05:17:23;;;;;;;14.68;7.13;;;;;;;;;;5058616;28;20223;-74
2023/02/23 05:20:09;;;;;;;19.02;7.13;;;;;;;;;;5067416;28;20100;-70
2023/02/23 05:22:55;;;;;;;13.88;6.90;;;;;;;;;;5071658;28;20052;-75
2023/02/23 05:25:41;;;;;;;13.30;6.70;;;;;;;;;;5067365;28;20013;-74
2023/02/23 05:28:26;;;;;;;16.08;7.60;;;;;;;;;;5058678;28;20036;-74
2023/02/23 05:31:12;;;;;;;16.42;7.38;;;;;;;;;;5057272;28;20036;-75
2023/02/23 05:33:57;;;;;;;15.18;7.28;;;;;;;;;;5056980;28;20045;-75
2023/02/23 05:36:43;;;;;;;16.30;7.30;;;;;;;;;;5057657;28;20082;-77
2023/02/23 05:39:29;;;;;;;20.65;8.30;;;;;;;;;;5057639;28;20028;-78
2023/02/23 05:42:15;;;;;;;16.88;7.10;;;;;;;;;;5058305;28;20062;-75
2023/02/23 05:45:00;;;;;;;16.20;7.60;;;;;;;;;;5058292;28;20025;-75
2023/02/23 05:47:46;;;;;;;23.13;7.78;;;;;;;;;;5057769;28;20446;-76
2023/02/23 05:50:31;;;;;;;17.08;7.97;;;;;;;;;;5057872;28;20025;-76
2023/02/23 05:53:17;;;;;;;16.30;8.18;;;;;;;;;;5057882;28;20095;-76
2023/02/23 05:56:03;;;;;;;17.10;7.75;;;;;;;;;;5067419;28;20020;-75
2023/02/23 05:58:50;;;;;;;13.32;7.72;;;;;;;;;;5066183;28;20059;-76
2023/02/23 06:01:35;;;;;;;30.08;9.20;;;;;;;;;;5057866;28;20516;-76
2023/02/23 06:04:22;;;;;;;38.67;8.45;;;;;;;;;;5057176;28;20025;-77
2023/02/23 06:07:07;;;;;;;21.23;7.93;;;;;;;;;;5057659;28;20028;-77
2023/02/23 06:09:53;;;;;;;19.45;8.45;;;;;;;;;;5057256;28;20075;-76
2023/02/23 06:12:38;;;;;;;19.23;8.15;;;;;;;;;;5056228;28;20032;-77
2023/02/23 06:15:24;;;;;;;32.50;9.15;;;;;;;;;;5056918;28;20025;-77
2023/02/23 06:18:09;;;;;;;19.75;8.43;;;;;;;;;;5056971;28;20066;-77
2023/02/23 06:20:58;;;;;;;14.85;8.25;;;;;;;;;;5056067;28;20017;-78
2023/02/23 06:23:44;;;;;;;14.32;7.97;;;;;;;;;;5057501;28;20441;-77
2023/02/23 06:26:31;;;;;;;17.65;8.13;;;;;;;;;;5056894;28;20025;-76
2023/02/23 06:29:16;;;;;;;14.18;7.80;;;;;;;;;;5057162;28;20029;-77
2023/02/23 06:32:02;;;;;;;18.05;8.43;;;;;;;;;;5056182;28;20056;-77
2023/02/23 06:34:48;;;;;;;11.70;7.28;;;;;;;;;;5059337;28;20049;-77
2023/02/23 06:37:34;;;;;;;12.73;7.18;;;;;;;;;;5070269;28;20416;-75
2023/02/23 06:40:19;;;;;;;14.20;7.55;;;;;;;;;;5069754;28;20028;-76
2023/02/23 06:43:05;;;;;;;19.92;8.00;;;;;;;;;;5063731;28;20028;-78
2023/02/23 06:45:51;;;;;;;13.15;7.05;;;;;;;;;;5057265;28;20024;-77
2023/02/23 06:48:36;;;;;;;18.55;7.85;;;;;;;;;;5056419;28;20064;-77
2023/02/23 06:51:22;;;;;;;19.10;8.82;;;;;;;;;;5056054;28;20118;-77
2023/02/23 06:54:08;;;;;;;15.05;7.65;;;;;;;;;;5056971;28;20035;-75
2023/02/23 06:56:55;;;;;;;15.77;7.40;;;;;;;;;;5055752;28;20017;-77
2023/02/23 06:59:41;;;;;;;16.30;8.18;;;;;;;;;;5056907;28;20433;-77
2023/02/23 07:02:27;;;;;;;17.85;7.47;;;;;;;;;;5056865;28;20029;-77
2023/02/23 07:05:12;;;;;;;21.15;10.82;;;;;;;;;;5056064;28;20021;-77
2023/02/23 07:07:58;;;;;;;18.65;9.15;;;;;;;;;;5055297;28;20077;-78
2023/02/23 07:10:44;;;;;;;15.85;8.35;;;;;;;;;;5055948;28;20473;-76
2023/02/23 07:13:30;;;;;;;16.52;8.18;;;;;;;;;;5056489;28;20029;-76
2023/02/23 07:16:15;;;;;;;15.95;8.35;;;;;;;;;;5055507;28;20017;-77
2023/02/23 07:19:02;;;;;;;17.15;7.63;;;;;;;;;;5054977;28;20029;-77
2023/02/23 07:21:48;;;;;;;18.88;7.97;;;;;;;;;;5055756;28;20021;-77
2023/02/23 07:24:33;;;;;;;17.05;8.30;;;;;;;;;;5054911;28;20025;-77
2023/02/23 07:27:19;;;;;;;18.23;8.45;;;;;;;;;;5055845;28;20066;-77
2023/02/23 07:30:05;;;;;;;16.98;8.27;;;;;;;;;;5056257;28;20029;-78
2023/02/23 07:32:51;;;;;;;19.05;8.50;;;;;;;;;;5054734;28;20044;-77
2023/02/23 07:35:37;;;;;;;18.85;8.80;;;;;;;;;;5055616;28;20029;-75
2023/02/23 07:38:22;;;;;;;20.73;7.93;;;;;;;;;;5055006;28;20028;-78
2023/02/23 07:41:09;;;;;;;23.45;9.25;;;;;;;;;;5055050;28;20031;-78
2023/02/23 07:43:55;;;;;;;26.10;9.05;;;;;;;;;;5055881;28;20078;-77
2023/02/23 07:46:40;;;;;;;17.63;7.95;;;;;;;;;;5055761;28;20084;-78
2023/02/23 07:49:26;;;;;;;19.20;8.25;;;;;;;;;;5055513;28;20025;-78
2023/02/23 07:52:15;;;;;;;16.88;8.18;;;;;;;;;;5054708;28;20032;-77
2023/02/23 07:55:01;;;;;;;17.65;7.65;;;;;;;;;;5054415;28;20021;-77
2023/02/23 07:57:47;;;;;;;16.75;7.93;;;;;;;;;;5054808;28;20090;-78
2023/02/23 08:00:33;;;;;;;16.23;8.48;;;;;;;;;;5054760;28;20086;-77
2023/02/23 08:03:18;;;;;;;24.67;8.25;;;;;;;;;;5055622;28;20017;-78
2023/02/23 08:06:04;;;;;;;15.13;7.40;;;;;;;;;;5054813;28;20013;-78
2023/02/23 08:08:50;;;;;;;13.27;7.90;;;;;;;;;;5055283;28;20032;-77
2023/02/23 08:11:36;;;;;;;17.95;7.43;;;;;;;;;;5054672;28;20118;-77
2023/02/23 08:14:22;;;;;;;16.58;7.47;;;;;;;;;;5055513;28;20032;-78
2023/02/23 08:17:08;;;;;;;15.73;6.88;;;;;;;;;;5054868;28;20025;-77
2023/02/23 08:19:54;;;;;;;23.70;7.55;;;;;;;;;;5053950;28;20021;-78
2023/02/23 08:22:39;;;;;;;17.80;7.90;;;;;;;;;;5053998;28;20017;-78
2023/02/23 08:25:26;;;;;;;27.70;7.70;;;;;;;;;;5055308;28;20028;-78
2023/02/23 08:28:11;;;;;;;24.48;8.35;;;;;;;;;;5056501;28;20028;-77
2023/02/23 08:30:58;;;;;;;16.45;8.10;;;;;;;;;;5052910;28;20091;-78
2023/02/23 08:33:43;;;;;;;17.00;7.90;;;;;;;;;;5054479;28;20063;-78
2023/02/23 08:36:29;;;;;;;15.30;6.80;;;;;;;;;;5053688;28;20124;-78
2023/02/23 08:39:14;;;;;;;12.82;6.88;;;;;;;;;;5055290;28;20434;-79
2023/02/23 08:42:00;;;;;;;11.50;6.75;;;;;;;;;;5055070;28;20025;-77
2023/02/23 08:44:48;;;;;;;18.30;6.53;;;;;;;;;;5053932;28;20068;-78
2023/02/23 08:47:35;;;;;;;13.32;6.60;;;;;;;;;;5054211;28;20123;-77
2023/02/23 08:50:20;;;;;;;13.30;6.57;;;;;;;;;;5054817;28;20082;-78
2023/02/23 08:53:06;;;;;;;19.58;6.78;;;;;;;;;;5053898;28;20032;-77
2023/02/23 08:55:59;;;;;;;20.17;6.25;;;;;;;;;;5053840;28;20025;-78
2023/02/23 08:58:45;;;;;;;18.65;7.57;;;;;;;;;;5053698;28;20065;-77
2023/02/23 09:01:30;;;;;;;17.02;7.53;;;;;;;;;;5053931;28;20032;-78
2023/02/23 09:04:17;;;;;;;14.38;6.97;;;;;;;;;;5054359;28;20021;-78
2023/02/23 09:07:03;;;;;;;14.73;6.75;;;;;;;;;;5055185;28;20064;-78
2023/02/23 09:09:53;;;;;;;14.45;7.93;;;;;;;;;;5053802;28;20025;-78
2023/02/23 09:12:39;;;;;;;13.75;6.53;;;;;;;;;;5055219;28;20035;-78
2023/02/23 09:15:24;;;;;;;15.73;7.15;;;;;;;;;;5054052;28;20182;-77
2023/02/23 09:18:12;;;;;;;14.15;7.07;;;;;;;;;;5054464;28;20013;-78
2023/02/23 09:20:58;;;;;;;15.60;6.32;;;;;;;;;;5054263;28;20029;-78
2023/02/23 09:23:45;;;;;;;18.27;6.53;;;;;;;;;;5054623;28;20056;-77
2023/02/23 09:26:32;;;;;;;16.48;6.72;;;;;;;;;;5054037;28;20488;-77
2023/02/23 09:29:17;;;;;;;11.88;6.05;;;;;;;;;;5054940;28;20410;-79
2023/02/23 09:32:03;;;;;;;14.25;7.00;;;;;;;;;;5053353;28;20056;-78
2023/02/23 09:34:49;;;;;;;20.77;7.88;;;;;;;;;;5055335;28;20021;-77
2023/02/23 09:37:34;;;;;;;10.10;6.13;;;;;;;;;;5054560;28;20202;-78
2023/02/23 09:40:24;;;;;;;14.52;7.25;;;;;;;;;;5053912;28;20035;-78
2023/02/23 09:43:09;;;;;;;21.60;7.25;;;;;;;;;;5054758;28;20028;-78
2023/02/23 09:45:55;;;;;;;15.40;6.75;;;;;;;;;;5053959;28;20028;-78
2023/02/23 09:48:42;;;;;;;16.77;6.82;;;;;;;;;;5056579;28;20033;-77
2023/02/23 09:51:29;;;;;;;16.65;6.78;;;;;;;;;;5058128;28;20025;-78
2023/02/23 09:54:15;;;;;;;11.93;5.90;;;;;;;;;;5058700;28;20024;-77
2023/02/23 09:57:02;;;;;;;15.10;5.75;;;;;;;;;;5058919;28;20025;-78
2023/02/23 09:59:48;;;;;;;10.43;5.38;;;;;;;;;;5060301;28;20021;-78
2023/02/23 10:02:38;;;;;;;8.45;4.53;;;;;;;;;;5067006;28;20082;-78
2023/02/23 10:05:26;;;;;;;16.27;5.32;;;;;;;;;;5071281;28;20040;-77
2023/02/23 10:08:22;;;;;;;14.95;5.75;;;;;;;;;;5072977;28;20020;-78
2023/02/23 10:11:07;;;;;;;14.20;5.35;;;;;;;;;;5075572;28;20055;-78
2023/02/23 10:14:12;;;;;;;17.17;5.63;;;;;;;;;;5070027;28;20035;-78
2023/02/23 10:17:09;;;;;;;17.05;5.65;;;;;;;;;;5071251;28;20032;-78
2023/02/23 10:20:10;;;;;;;12.63;5.05;;;;;;;;;;5072105;28;20021;-76
2023/02/23 10:23:00;;;;;;;13.93;5.65;;;;;;;;;;5072197;28;20020;-77
2023/02/23 10:25:48;;;;;;;14.63;5.38;;;;;;;;;;5071206;28;20055;-77
2023/02/23 10:28:35;;;;;;;12.10;5.07;;;;;;;;;;5071439;28;20017;-78
2023/02/23 10:31:26;;;;;;;11.15;5.20;;;;;;;;;;5067147;28;20025;-78
2023/02/23 10:34:14;;;;;;;12.23;6.18;;;;;;;;;;5068259;28;20037;-78
2023/02/23 10:37:01;;;;;;;20.98;5.95;;;;;;;;;;5075165;28;20025;-78
2023/02/23 10:39:48;;;;;;;17.23;5.03;;;;;;;;;;5073218;28;20074;-77
2023/02/23 10:42:34;;;;;;;13.43;4.85;;;;;;;;;;5073227;28;20032;-78
2023/02/23 10:45:23;;;;;;;16.92;5.50;;;;;;;;;;5062522;28;20372;-79
2023/02/23 10:48:15;;;;;;;13.18;5.47;;;;;;;;;;5060828;28;20442;-78
2023/02/23 10:51:04;;;;;;;12.43;5.22;;;;;;;;;;5059738;28;20032;-79
2023/02/23 10:53:51;;;;;;;12.32;4.95;;;;;;;;;;5060053;28;20032;-79
2023/02/23 10:56:42;;;;;;;14.63;5.18;;;;;;;;;;5059621;28;20072;-78
2023/02/23 10:59:28;;;;;;;13.93;4.93;;;;;;;;;;5066056;28;20027;-77
2023/02/23 11:02:15;;;;;;;13.07;5.35;;;;;;;;;;5062817;28;20508;-77
2023/02/23 11:05:01;;;;;;;13.82;6.10;;;;;;;;;;5059115;28;20021;-78
2023/02/23 11:07:46;;;;;;;12.57;4.95;;;;;;;;;;5060799;28;20059;-80
2023/02/23 11:10:33;;;;;;;13.32;4.63;;;;;;;;;;5069948;28;20028;-77
2023/02/23 11:13:22;;;;;;;36.42;6.47;;;;;;;;;;5061982;28;20108;-78
2023/02/23 11:16:12;;;;;;;9.25;4.68;;;;;;;;;;5066876;28;20017;-77
2023/02/23 11:18:59;;;;;;;25.35;5.22;;;;;;;;;;5067508;28;20114;-78
2023/02/23 11:21:48;;;;;;;17.02;4.40;;;;;;;;;;5070704;28;20059;-76
2023/02/23 11:24:35;;;;;;;12.20;4.45;;;;;;;;;;5064763;28;20017;-76
2023/02/23 11:27:25;;;;;;;15.20;4.78;;;;;;;;;;5066290;28;20017;-75
2023/02/23 11:30:11;;;;;;;12.15;4.90;;;;;;;;;;5070909;28;20047;-76
2023/02/23 11:33:08;;;;;;;11.35;4.50;;;;;;;;;;5071771;28;20052;-75
2023/02/23 11:35:58;;;;;;;13.82;5.18;;;;;;;;;;5072686;28;20033;-77
2023/02/23 11:38:45;;;;;;;17.38;4.90;;;;;;;;;;5065458;28;20025;-75
2023/02/23 11:41:33;;;;;;;11.00;4.60;;;;;;;;;;5069950;28;20104;-77
2023/02/23 11:44:21;;;;;;;18.13;4.50;;;;;;;;;;5071530;28;20017;-77
2023/02/23 11:47:13;;;;;;;13.30;5.00;;;;;;;;;;5069190;28;20071;-77
2023/02/23 11:49:58;;;;;;;15.65;5.00;;;;;;;;;;5066066;28;20086;-77
2023/02/23 11:52:44;;;;;;;11.43;4.63;;;;;;;;;;5060676;28;20024;-77
2023/02/23 11:55:31;;;;;;;16.17;4.97;;;;;;;;;;5059907;28;20021;-78
2023/02/23 11:58:22;;;;;;;9.32;5.47;;;;;;;;;;5056317;28;20442;-78
2023/02/23 12:01:12;;;;;;;21.45;6.18;;;;;;;;;;5055119;28;20060;-78
2023/02/23 12:03:58;;;;;;;13.77;5.32;;;;;;;;;;5056418;28;20049;-77
2023/02/23 12:06:43;;;;;;;12.93;5.60;;;;;;;;;;5058107;28;20036;-78
2023/02/23 12:09:31;;;;;;;10.75;5.88;;;;;;;;;;5060904;28;20025;-79
2023/02/23 12:12:19;;;;;;;11.18;5.93;;;;;;;;;;5057299;28;20116;-79
2023/02/23 12:15:25;;;;;;;10.88;5.25;;;;;;;;;;5057471;28;20048;-80
2023/02/23 12:18:15;;;;;;;13.90;5.47;;;;;;;;;;5053825;28;20443;-78
2023/02/23 12:21:40;;;;;;;8.77;5.00;;;;;;;;;;5056735;28;20028;-78
2023/02/23 12:24:31;;;;;;;8.48;4.97;;;;;;;;;;4982809;28;20080;-78
2023/02/23 12:27:34;;;;;;;8.98;4.57;;;;;;;;;;4994987;28;20038;-79
2023/02/23 12:30:25;;;;;;;15.70;5.38;;;;;;;;;;5055514;28;20017;-78
2023/02/23 12:33:20;;;;;;;8.23;5.20;;;;;;;;;;5055110;28;20382;-78
2023/02/23 12:36:11;;;;;;;15.32;4.57;;;;;;;;;;5055589;28;20093;-79
2023/02/23 12:39:19;;;;;;;17.10;5.18;;;;;;;;;;5055693;28;20025;-79
2023/02/23 12:42:16;;;;;;;20.02;4.80;;;;;;;;;;5055209;28;20072;-79
2023/02/23 12:45:04;;;;;;;10.10;4.00;;;;;;;;;;5056011;28;20036;-78
2023/02/23 12:48:13;;;;;;;10.40;4.20;;;;;;;;;;5056821;28;20031;-78
2023/02/23 12:51:05;;;;;;;13.85;4.30;;;;;;;;;;5056878;28;20437;-77
2023/02/23 12:53:51;;;;;;;20.38;4.03;;;;;;;;;;5070894;28;20025;-76
2023/02/23 12:56:54;;;;;;;10.68;3.60;;;;;;;;;;5068764;28;20428;-77
2023/02/23 12:59:49;;;;;;;21.17;4.20;;;;;;;;;;5064253;28;20025;-78
2023/02/23 13:02:34;;;;;;;11.65;4.07;;;;;;;;;;5055955;28;20102;-78
2023/02/23 13:05:23;;;;;;;6.60;3.55;;;;;;;;;;5055831;28;20028;-77
2023/02/23 13:08:19;;;;;;;12.68;3.83;;;;;;;;;;5056354;28;20021;-77
2023/02/23 13:11:08;;;;;;;8.52;3.88;;;;;;;;;;5055909;28;20182;-77
2023/02/23 13:13:59;;;;;;;8.63;3.88;;;;;;;;;;5052916;28;20430;-77
2023/02/23 13:16:49;;;;;;;7.57;3.92;;;;;;;;;;5075707;28;20033;-76
2023/02/23 13:19:41;;;;;;;12.02;3.95;;;;;;;;;;5074257;28;20012;-77
2023/02/23 13:22:26;;;;;;;14.63;3.65;;;;;;;;;;5073637;28;20520;-77
2023/02/23 13:25:26;;;;;;;11.85;3.85;;;;;;;;;;5077977;28;20035;-77
2023/02/23 13:28:32;;;;;;;11.18;3.55;;;;;;;;;;5078472;28;20016;-78
2023/02/23 13:31:21;;;;;;;6.78;3.28;;;;;;;;;;5074843;28;20476;-78
2023/02/23 13:34:33;;;;;;;12.63;3.70;;;;;;;;;;5077282;28;20090;-75
2023/02/23 13:37:21;;;;;;;7.47;3.10;;;;;;;;;;5077448;28;20037;-78
2023/02/23 13:40:16;;;;;;;7.22;3.53;;;;;;;;;;5076196;28;20028;-79
2023/02/23 13:43:16;;;;;;;13.05;3.30;;;;;;;;;;5076090;28;20437;-78
2023/02/23 13:46:01;;;;;;;8.05;3.10;;;;;;;;;;5076405;28;20025;-79
2023/02/23 13:48:58;;;;;;;6.85;3.22;;;;;;;;;;5076112;28;20017;-78
2023/02/23 13:51:46;;;;;;;13.73;3.50;;;;;;;;;;5076316;28;20021;-77
2023/02/23 13:54:33;;;;;;;7.10;3.70;;;;;;;;;;5077141;28;20025;-78
2023/02/23 13:57:20;;;;;;;8.60;3.20;;;;;;;;;;5077030;28;20091;-79
2023/02/23 14:00:14;;;;;;;12.57;3.47;;;;;;;;;;5076385;28;20369;-79
2023/02/23 14:03:04;;;;;;;7.90;3.08;;;;;;;;;;5076430;28;20107;-78
2023/02/23 14:05:56;;;;;;;12.90;3.25;;;;;;;;;;5075857;28;20066;-77
2023/02/23 14:08:43;;;;;;;9.25;3.10;;;;;;;;;;5075435;28;20115;-78
2023/02/23 14:11:39;;;;;;;6.78;2.85;;;;;;;;;;5076840;28;20038;-79
2023/02/23 14:14:31;;;;;;;8.25;3.28;;;;;;;;;;5076380;28;20448;-81
2023/02/23 14:17:18;;;;;;;12.30;3.25;;;;;;;;;;5078760;28;20374;-79
2023/02/23 14:20:05;;;;;;;9.68;3.85;;;;;;;;;;5076963;28;20017;-79
2023/02/23 14:23:09;;;;;;;7.47;3.22;;;;;;;;;;5075725;28;20021;-78
2023/02/23 14:26:10;;;;;;;10.07;2.97;;;;;;;;;;5075932;28;20055;-78
2023/02/23 14:29:16;;;;;;;9.05;3.33;;;;;;;;;;5076115;28;20016;-77
2023/02/23 14:32:22;;;;;;;9.48;3.65;;;;;;;;;;5074586;28;20036;-79
2023/02/23 14:35:26;;;;;;;10.52;3.28;;;;;;;;;;5075084;28;20079;-79
2023/02/23 14:38:23;;;;;;;8.80;2.75;;;;;;;;;;5075347;28;20048;-78
2023/02/23 14:41:10;;;;;;;14.63;3.50;;;;;;;;;;5075164;28;20035;-78
2023/02/23 14:44:05;;;;;;;10.02;3.90;;;;;;;;;;5074817;28;20031;-79
2023/02/23 14:46:55;;;;;;;11.05;4.05;;;;;;;;;;5077032;28;20334;-77
2023/02/23 14:49:47;;;;;;;9.80;4.72;;;;;;;;;;5076955;28;20043;-78
2023/02/23 14:52:39;;;;;;;10.32;3.67;;;;;;;;;;5082441;28;20021;-78
2023/02/23 14:55:35;;;;;;;6.32;3.10;;;;;;;;;;5095387;28;20017;-78
2023/02/23 14:58:32;;;;;;;14.55;3.75;;;;;;;;;;5083618;28;20054;-78
2023/02/23 15:01:37;;;;;;;12.98;3.90;;;;;;;;;;5077954;28;20056;-81
2023/02/23 15:04:25;;;;;;;10.00;3.40;;;;;;;;;;5076649;28;20090;-79
2023/02/23 15:07:24;;;;;;;10.43;4.00;;;;;;;;;;5075123;28;20025;-78
2023/02/23 15:10:16;;;;;;;9.27;3.60;;;;;;;;;;5074429;28;20495;-79
2023/02/23 15:13:20;;;;;;;9.30;3.60;;;;;;;;;;5078949;28;20034;-77
2023/02/23 15:16:07;;;;;;;11.07;4.18;;;;;;;;;;5087494;28;20016;-79
2023/02/23 15:18:54;;;;;;;9.55;3.90;;;;;;;;;;5075017;28;20036;-80
2023/02/23 15:21:39;;;;;;;10.07;3.78;;;;;;;;;;5074055;28;20131;-79
2023/02/23 15:24:27;;;;;;;11.20;3.88;;;;;;;;;;5075133;28;20392;-79
2023/02/23 15:27:23;;;;;;;10.95;3.70;;;;;;;;;;5074093;28;20050;-79
2023/02/23 15:30:18;;;;;;;8.63;4.00;;;;;;;;;;5075214;28;20032;-80
2023/02/23 15:33:11;;;;;;;10.02;3.97;;;;;;;;;;5073573;28;20055;-79
2023/02/23 15:35:56;;;;;;;9.52;3.90;;;;;;;;;;5074442;28;20111;-78
2023/02/23 15:38:45;;;;;;;12.27;4.32;;;;;;;;;;5073980;28;20031;-79
2023/02/23 15:41:34;;;;;;;12.75;4.18;;;;;;;;;;5073539;28;20400;-79
2023/02/23 15:44:22;;;;;;;12.90;4.13;;;;;;;;;;5074791;28;20020;-80
2023/02/23 15:47:19;;;;;;;21.55;3.55;;;;;;;;;;5074718;28;20029;-79
2023/02/23 15:50:08;;;;;;;8.68;3.58;;;;;;;;;;5074293;28;20024;-79
2023/02/23 15:52:57;;;;;;;10.95;3.30;;;;;;;;;;5073836;28;20021;-79
2023/02/23 15:55:43;;;;;;;10.95;3.15;;;;;;;;;;5073978;28;20024;-79
2023/02/23 15:58:38;;;;;;;11.80;3.30;;;;;;;;;;5074615;28;20153;-79
2023/02/23 16:01:25;;;;;;;6.63;3.25;;;;;;;;;;5073453;28;20020;-79
2023/02/23 16:04:10;;;;;;;7.93;3.20;;;;;;;;;;5073224;28;20055;-79
2023/02/23 16:07:10;;;;;;;11.45;3.83;;;;;;;;;;5073496;28;20098;-79
2023/02/23 16:10:04;;;;;;;10.77;3.47;;;;;;;;;;5072937;28;20025;-79
2023/02/23 16:12:51;;;;;;;9.82;3.45;;;;;;;;;;5073429;28;20025;-79
2023/02/23 16:15:37;;;;;;;9.50;3.58;;;;;;;;;;5073497;28;20020;-80
2023/02/23 16:18:31;;;;;;;14.98;4.75;;;;;;;;;;5073576;28;20046;-79
2023/02/23 16:21:20;;;;;;;13.15;3.92;;;;;;;;;;5073503;28;20024;-79
2023/02/23 16:24:12;;;;;;;7.07;3.72;;;;;;;;;;5073390;28;20029;-79
2023/02/23 16:26:59;;;;;;;11.13;3.92;;;;;;;;;;5073133;28;20016;-79
2023/02/23 16:29:45;;;;;;;10.32;4.78;;;;;;;;;;5073001;28;20028;-79
2023/02/23 16:32:32;;;;;;;10.95;4.50;;;;;;;;;;5073024;28;20465;-79
2023/02/23 16:35:18;;;;;;;13.38;5.10;;;;;;;;;;5073018;28;20032;-79
2023/02/23 16:38:11;;;;;;;18.58;4.82;;;;;;;;;;5072274;28;20021;-79
2023/02/23 16:40:57;;;;;;;14.07;5.18;;;;;;;;;;5076917;28;20124;-79
2023/02/23 16:43:43;;;;;;;9.73;4.82;;;;;;;;;;5073297;28;20111;-79
2023/02/23 16:46:43;;;;;;;13.45;5.55;;;;;;;;;;5072197;28;20013;-78
2023/02/23 16:49:28;;;;;;;15.73;6.25;;;;;;;;;;5073452;28;20048;-79
2023/02/23 16:52:19;;;;;;;16.75;7.10;;;;;;;;;;5072955;28;20452;-79
2023/02/23 16:55:05;;;;;;;11.05;4.90;;;;;;;;;;5073030;28;20016;-79
2023/02/23 16:57:53;;;;;;;19.33;5.30;;;;;;;;;;5074285;28;20404;-80
2023/02/23 17:00:39;;;;;;;10.27;5.18;;;;;;;;;;5078875;28;20024;-79
2023/02/23 17:03:26;;;;;;;17.23;5.10;;;;;;;;;;5076616;28;20476;-80
2023/02/23 17:06:12;;;;;;;13.18;4.82;;;;;;;;;;5076860;28;20032;-80
2023/02/23 17:08:57;;;;;;;9.52;4.00;;;;;;;;;;5076292;28;20024;-78
2023/02/23 17:11:45;;;;;;;10.30;4.30;;;;;;;;;;5076450;28;20017;-79
2023/02/23 17:14:31;;;;;;;11.77;4.45;;;;;;;;;;5078814;28;20035;-80
2023/02/23 17:17:18;;;;;;;10.95;4.53;;;;;;;;;;5076180;28;20032;-79
2023/02/23 17:20:05;;;;;;;9.95;4.32;;;;;;;;;;5077091;28;20463;-79
2023/02/23 17:22:53;;;;;;;15.27;4.93;;;;;;;;;;5076650;28;20028;-80
2023/02/23 17:25:39;;;;;;;8.05;4.22;;;;;;;;;;5076679;28;20020;-80
2023/02/23 17:28:24;;;;;;;10.48;4.35;;;;;;;;;;5076543;28;20357;-80
2023/02/23 17:31:10;;;;;;;10.63;5.40;;;;;;;;;;5077177;28;20048;-81
2023/02/23 17:33:56;;;;;;;18.90;5.03;;;;;;;;;;5076635;28;20426;-80
2023/02/23 17:36:41;;;;;;;9.00;4.38;;;;;;;;;;5076491;28;20330;-80
2023/02/23 17:39:27;;;;;;;18.63;7.68;;;;;;;;;;5075898;28;20459;-79
2023/02/23 17:42:13;;;;;;;12.63;4.93;;;;;;;;;;5075975;28;20028;-79
2023/02/23 17:45:03;;;;;;;10.60;5.18;;;;;;;;;;5077858;28;20389;-80
2023/02/23 17:47:48;;;;;;;15.30;4.45;;;;;;;;;;5075858;28;20023;-80
2023/02/23 17:50:34;;;;;;;12.15;4.65;;;;;;;;;;5076301;28;20024;-80
2023/02/23 17:53:20;;;;;;;10.85;5.13;;;;;;;;;;5075481;28;20031;-81
2023/02/23 17:56:05;;;;;;;11.25;4.32;;;;;;;;;;5075463;28;20033;-82
2023/02/23 17:58:51;;;;;;;15.52;4.63;;;;;;;;;;5075652;28;20138;-80